createdAt,value
2019-01-24T00:01:22.628Z,55.53
2019-01-24T00:03:51.197Z,66.00
2019-01-24T00:06:19.857Z,56.57
2019-01-24T00:08:48.396Z,54.63
2019-01-24T00:11:16.888Z,58.37
2019-01-24T00:13:45.456Z,58.83
2019-01-24T00:16:13.982Z,61.87
2019-01-24T00:18:42.522Z,66.17
2019-01-24T00:21:11.082Z,57.73
2019-01-24T00:23:39.644Z,60.30
2019-01-24T00:26:08.231Z,58.23
2019-01-24T00:28:36.787Z,59.10
2019-01-24T00:31:05.302Z,61.67
2019-01-24T00:33:33.882Z,54.90
2019-01-24T00:36:02.495Z,59.43
2019-01-24T00:38:31.009Z,58.30
2019-01-24T00:40:59.561Z,57.73
2019-01-24T00:43:34.043Z,57.40
2019-01-24T00:46:05.634Z,53.67
2019-01-24T00:48:34.182Z,60.20
2019-01-24T00:51:04.324Z,56.53
2019-01-24T00:53:35.289Z,65.40
2019-01-24T00:56:03.834Z,57.00
2019-01-24T00:58:32.407Z,58.27
2019-01-24T01:01:01.053Z,55.70
2019-01-24T01:03:29.586Z,62.10
2019-01-24T01:05:58.145Z,54.77
2019-01-24T01:08:26.779Z,59.37
2019-01-24T01:10:55.362Z,55.20
2019-01-24T01:13:23.984Z,68.80
2019-01-24T01:15:52.611Z,63.87
2019-01-24T01:18:21.249Z,63.07
2019-01-24T01:20:49.877Z,60.47
2019-01-24T01:23:18.423Z,55.23
2019-01-24T01:25:46.988Z,59.90
2019-01-24T01:28:16.505Z,63.17
2019-01-24T01:30:45.093Z,53.83
2019-01-24T01:33:21.361Z,53.30
2019-01-24T01:35:45.620Z,60.93
2019-01-24T01:38:14.108Z,64.00
2019-01-24T01:40:42.668Z,56.30
2019-01-24T01:43:11.238Z,63.13
2019-01-24T01:45:39.857Z,64.07
2019-01-24T01:48:08.409Z,59.70
2019-01-24T01:50:37.065Z,55.77
2019-01-24T01:53:05.766Z,53.40
2019-01-24T01:55:34.399Z,56.30
2019-01-24T01:58:05.328Z,62.00
2019-01-24T02:00:36.290Z,56.87
2019-01-24T02:03:05.107Z,61.60
2019-01-24T02:05:33.667Z,58.03
2019-01-24T02:08:02.249Z,63.13
2019-01-24T02:10:32.407Z,56.60
2019-01-24T02:13:03.617Z,58.77
2019-01-24T02:15:32.275Z,64.90
2019-01-24T02:18:03.370Z,59.10
2019-01-24T02:20:32.034Z,57.33
2019-01-24T02:23:00.738Z,67.57
2019-01-24T02:25:29.428Z,58.63
2019-01-24T02:27:58.002Z,59.30
2019-01-24T02:30:33.414Z,59.40
2019-01-24T02:33:04.880Z,56.73
2019-01-24T02:35:33.490Z,57.30
2019-01-24T02:38:02.046Z,57.93
2019-01-24T02:40:46.973Z,58.27
2019-01-24T02:43:15.578Z,50.13
2019-01-24T02:45:44.168Z,57.97
2019-01-24T02:48:12.730Z,56.77
2019-01-24T02:50:41.230Z,65.93
2019-01-24T02:53:10.101Z,58.13
2019-01-24T02:55:38.657Z,62.40
2019-01-24T02:58:07.225Z,66.63
2019-01-24T03:00:35.952Z,57.17
2019-01-24T03:03:04.698Z,63.57
2019-01-24T03:05:36.118Z,57.57
2019-01-24T03:08:04.854Z,68.13
2019-01-24T03:10:33.400Z,64.70
2019-01-24T03:13:01.969Z,71.03
2019-01-24T03:15:33.206Z,62.37
2019-01-24T03:18:01.866Z,56.63
2019-01-24T03:20:39.086Z,64.63
2019-01-24T03:23:07.680Z,69.27
2019-01-24T03:25:36.285Z,61.97
2019-01-24T03:28:05.604Z,62.83
2019-01-24T03:30:34.257Z,69.63
2019-01-24T03:33:02.797Z,65.90
2019-01-24T03:35:31.462Z,67.47
2019-01-24T03:38:07.047Z,61.03
2019-01-24T03:40:35.631Z,65.53
2019-01-24T03:43:04.334Z,66.33
2019-01-24T03:45:32.948Z,71.20
2019-01-24T03:48:01.531Z,65.47
2019-01-24T03:50:35.603Z,70.33
2019-01-24T03:53:04.296Z,63.63
2019-01-24T03:55:32.793Z,62.17
2019-01-24T03:58:01.429Z,72.77
2019-01-24T04:00:30.091Z,70.20
2019-01-24T04:02:58.645Z,65.93
2019-01-24T04:05:27.234Z,65.70
2019-01-24T04:07:56.127Z,69.43
2019-01-24T04:10:24.685Z,64.53
2019-01-24T04:12:53.337Z,66.63
2019-01-24T04:15:25.494Z,68.87
2019-01-24T04:17:54.300Z,70.77
2019-01-24T04:20:24.493Z,61.57
2019-01-24T04:22:53.130Z,67.30
2019-01-24T04:25:21.711Z,66.30
2019-01-24T04:27:50.356Z,69.13
2019-01-24T04:30:20.747Z,68.27
2019-01-24T04:32:49.663Z,63.60
2019-01-24T04:35:19.965Z,70.73
2019-01-24T04:37:48.979Z,67.60
2019-01-24T04:40:19.591Z,67.87
2019-01-24T04:42:48.288Z,71.20
2019-01-24T04:45:18.196Z,69.07
2019-01-24T04:47:49.297Z,60.27
2019-01-24T04:50:18.607Z,66.77
2019-01-24T04:52:50.233Z,65.27
2019-01-24T04:55:19.592Z,68.43
2019-01-24T04:57:48.453Z,71.10
2019-01-24T05:00:28.213Z,67.87
2019-01-24T05:02:56.835Z,67.47
2019-01-24T05:05:28.035Z,66.10
2019-01-24T05:07:56.239Z,71.20
2019-01-24T05:10:27.274Z,70.10
2019-01-24T05:12:55.918Z,67.53
2019-01-24T05:15:24.609Z,75.80
2019-01-24T05:17:53.171Z,69.00
2019-01-24T05:20:21.748Z,66.70
2019-01-24T05:22:50.674Z,66.00
2019-01-24T05:25:19.970Z,71.93
2019-01-24T05:27:48.587Z,82.13
2019-01-24T05:30:22.711Z,72.17
2019-01-24T05:32:51.338Z,66.67
2019-01-24T05:35:19.929Z,69.40
2019-01-24T05:37:48.575Z,67.20
2019-01-24T05:40:20.021Z,66.93
2019-01-24T05:42:51.351Z,76.27
2019-01-24T05:45:26.414Z,80.03
2019-01-24T05:47:57.965Z,74.57
2019-01-24T05:50:26.819Z,72.87
2019-01-24T05:52:57.014Z,71.73
2019-01-24T05:55:25.585Z,72.13
2019-01-24T05:57:56.760Z,71.27
2019-01-24T06:00:29.855Z,71.47
2019-01-24T06:02:58.454Z,73.23
2019-01-24T06:05:29.580Z,67.83
2019-01-24T06:07:58.153Z,75.13
2019-01-24T06:10:27.447Z,72.43
2019-01-24T06:12:56.009Z,75.37
2019-01-24T06:15:24.600Z,77.83
2019-01-24T06:17:53.084Z,77.37
2019-01-24T06:20:21.771Z,66.13
2019-01-24T06:22:50.319Z,75.00
2019-01-24T06:25:23.124Z,74.73
2019-01-24T06:27:51.650Z,80.60
2019-01-24T06:30:22.173Z,81.03
2019-01-24T06:32:50.985Z,72.07
2019-01-24T06:35:19.752Z,78.37
2019-01-24T06:37:49.894Z,80.70
2019-01-24T06:40:21.522Z,76.87
2019-01-24T06:42:51.624Z,68.87
2019-01-24T06:45:23.834Z,76.97
2019-01-24T06:47:52.381Z,80.50
2019-01-24T06:50:21.110Z,75.97
2019-01-24T06:52:49.820Z,74.90
2019-01-24T06:55:21.482Z,71.43
2019-01-24T06:57:51.668Z,76.10
2019-01-24T07:00:23.432Z,66.20
2019-01-24T07:02:52.136Z,75.37
2019-01-24T07:05:26.891Z,80.67
2019-01-24T07:07:51.080Z,71.47
2019-01-24T07:10:21.582Z,77.43
2019-01-24T07:12:53.150Z,67.23
2019-01-24T07:15:23.311Z,75.57
2019-01-24T07:17:53.353Z,80.77
2019-01-24T07:20:22.223Z,75.73
2019-01-24T07:22:53.352Z,71.87
2019-01-24T07:25:24.626Z,84.00
2019-01-24T07:27:53.177Z,83.50
2019-01-24T07:30:41.133Z,83.97
2019-01-24T07:33:09.703Z,79.17
2019-01-24T07:35:38.261Z,77.30
2019-01-24T07:38:07.150Z,79.30
2019-01-24T07:40:35.727Z,78.53
2019-01-24T07:43:04.448Z,77.37
2019-01-24T07:45:35.846Z,82.40
2019-01-24T07:48:04.794Z,81.53
2019-01-24T07:50:33.453Z,73.73
2019-01-24T07:53:02.142Z,78.33
2019-01-24T07:55:33.538Z,79.97
2019-01-24T07:58:02.194Z,75.07
2019-01-24T08:00:31.114Z,82.07
2019-01-24T08:02:59.741Z,86.03
2019-01-24T08:05:30.546Z,83.67
2019-01-24T08:07:59.172Z,82.57
2019-01-24T08:10:27.733Z,79.87
2019-01-24T08:12:56.333Z,85.90
2019-01-24T08:15:25.232Z,75.00
2019-01-24T08:17:53.964Z,76.63
2019-01-24T08:20:24.945Z,81.73
2019-01-24T08:22:59.302Z,85.67
2019-01-24T08:25:27.888Z,81.73
2019-01-24T08:27:56.450Z,77.60
2019-01-24T08:30:30.532Z,83.27
2019-01-24T08:32:59.180Z,79.67
2019-01-24T08:35:35.224Z,87.77
2019-01-24T08:38:04.247Z,90.27
2019-01-24T08:40:32.752Z,92.13
2019-01-24T08:43:01.450Z,93.10
2019-01-24T08:45:30.110Z,99.27
2019-01-24T08:47:59.245Z,96.57
2019-01-24T08:50:30.487Z,100.83
2019-01-24T08:52:59.284Z,81.73
2019-01-24T08:55:36.325Z,89.30
2019-01-24T08:58:05.440Z,78.17
2019-01-24T09:00:34.133Z,91.13
2019-01-24T09:03:03.246Z,91.93
2019-01-24T09:05:31.831Z,104.83
2019-01-24T09:08:00.391Z,87.83
2019-01-24T09:10:31.690Z,81.00
2019-01-24T09:13:00.429Z,75.77
2019-01-24T09:15:29.398Z,82.07
2019-01-24T09:17:57.977Z,79.23
2019-01-24T09:20:28.143Z,75.63
2019-01-24T09:22:56.754Z,82.50
2019-01-24T09:25:27.039Z,77.77
2019-01-24T09:27:55.653Z,82.07
2019-01-24T09:30:26.813Z,76.13
2019-01-24T09:32:55.490Z,78.37
2019-01-24T09:35:24.675Z,82.70
2019-01-24T09:37:53.297Z,76.03
2019-01-24T09:40:24.962Z,83.03
2019-01-24T09:42:53.591Z,82.07
2019-01-24T09:45:24.455Z,79.77
2019-01-24T09:47:55.058Z,77.27
2019-01-24T09:50:25.379Z,76.43
2019-01-24T09:52:54.100Z,78.60
2019-01-24T09:55:22.835Z,84.83
2019-01-24T09:57:51.529Z,74.07
2019-01-24T10:00:25.472Z,77.03
2019-01-24T10:02:54.189Z,79.90
2019-01-24T10:05:22.891Z,74.87
2019-01-24T10:07:54.325Z,83.53
2019-01-24T10:11:00.537Z,74.50
2019-01-24T10:13:08.512Z,83.97
2019-01-24T10:15:43.032Z,87.20
2019-01-24T10:18:11.646Z,79.80
2019-01-24T10:20:40.201Z,77.00
2019-01-24T10:23:12.666Z,77.53
2019-01-24T10:25:44.440Z,77.83
2019-01-24T10:28:19.389Z,78.87
2019-01-24T10:30:50.255Z,83.47
2019-01-24T10:33:21.764Z,76.40
2019-01-24T10:35:50.283Z,87.33
2019-01-24T10:38:19.141Z,83.33
2019-01-24T10:40:50.384Z,73.93
2019-01-24T10:43:18.886Z,73.03
2019-01-24T10:45:47.485Z,76.67
2019-01-24T10:48:16.046Z,74.43
2019-01-24T10:50:44.612Z,69.57
2019-01-24T10:53:13.289Z,72.43
2019-01-24T10:55:41.891Z,76.23
2019-01-24T10:58:10.531Z,89.80
2019-01-24T11:00:42.711Z,89.17
2019-01-24T11:03:12.874Z,75.33
2019-01-24T11:05:47.650Z,79.43
2019-01-24T11:08:16.380Z,77.43
2019-01-24T11:10:44.950Z,77.60
2019-01-24T11:13:13.599Z,78.80
2019-01-24T11:15:42.332Z,69.63
2019-01-24T11:18:10.988Z,75.63
2019-01-24T11:20:39.722Z,81.90
2019-01-24T11:23:08.418Z,79.07
2019-01-24T11:25:37.082Z,82.97
2019-01-24T11:28:08.829Z,71.63
2019-01-24T11:30:39.866Z,74.37
2019-01-24T11:33:08.889Z,76.80
2019-01-24T11:35:37.808Z,85.33
2019-01-24T11:38:07.255Z,81.00
2019-01-24T11:40:36.291Z,82.47
2019-01-24T11:43:10.409Z,81.53
2019-01-24T11:45:40.932Z,61.93
2019-01-24T11:48:09.545Z,70.43
2019-01-24T11:50:38.068Z,71.47
2019-01-24T11:53:06.757Z,73.30
2019-01-24T11:55:35.306Z,75.63
2019-01-24T11:58:07.280Z,74.73
2019-01-24T12:00:39.324Z,76.33
2019-01-24T12:03:08.126Z,76.13
2019-01-24T12:05:36.679Z,82.93
2019-01-24T12:08:05.873Z,80.17
2019-01-24T12:10:34.458Z,75.20
2019-01-24T12:13:05.484Z,69.27
2019-01-24T12:15:34.010Z,66.87
2019-01-24T12:18:02.668Z,72.40
2019-01-24T12:20:33.796Z,66.67
2019-01-24T12:23:02.358Z,66.40
2019-01-24T12:25:30.979Z,62.07
2019-01-24T12:28:01.170Z,65.53
2019-01-24T12:30:34.352Z,60.20
2019-01-24T12:33:04.279Z,60.40
2019-01-24T12:35:39.912Z,66.23
2019-01-24T12:38:11.980Z,72.53
2019-01-24T12:40:45.681Z,66.17
2019-01-24T12:43:14.269Z,53.47
2019-01-24T12:45:42.828Z,63.53
2019-01-24T12:48:11.460Z,56.50
2019-01-24T12:50:40.073Z,64.33
2019-01-24T12:53:08.846Z,60.57
2019-01-24T12:55:37.469Z,65.63
2019-01-24T12:58:08.371Z,59.73
2019-01-24T13:00:39.677Z,60.07
2019-01-24T13:03:09.874Z,62.67
2019-01-24T13:05:41.348Z,61.27
2019-01-24T13:08:12.995Z,58.40
2019-01-24T13:10:45.603Z,55.97
2019-01-24T13:13:14.075Z,61.17
2019-01-24T13:15:42.804Z,60.70
2019-01-24T13:18:11.409Z,59.43
2019-01-24T13:20:40.073Z,56.77
2019-01-24T13:23:08.631Z,60.00
2019-01-24T13:25:41.294Z,62.23
2019-01-24T13:28:09.958Z,52.27
2019-01-24T13:30:38.527Z,62.13
2019-01-24T13:33:07.756Z,58.10
2019-01-24T13:35:36.344Z,64.30
2019-01-24T13:38:05.642Z,58.37
2019-01-24T13:40:34.195Z,63.93
2019-01-24T13:43:02.944Z,57.97
2019-01-24T13:45:33.639Z,63.47
2019-01-24T13:48:02.444Z,56.90
2019-01-24T13:50:31.099Z,59.87
2019-01-24T13:52:59.673Z,55.77
2019-01-24T13:55:29.757Z,60.90
2019-01-24T13:57:58.423Z,62.53
2019-01-24T14:00:32.699Z,56.27
2019-01-24T14:03:18.713Z,58.37
2019-01-24T14:05:47.275Z,56.77
2019-01-24T14:08:15.854Z,60.53
2019-01-24T14:10:44.507Z,65.50
2019-01-24T14:13:13.142Z,56.77
2019-01-24T14:15:41.733Z,60.57
2019-01-24T14:18:13.932Z,55.30
2019-01-24T14:20:42.525Z,53.47
2019-01-24T14:23:11.102Z,53.70
2019-01-24T14:25:39.659Z,55.90
2019-01-24T14:28:11.191Z,52.60
2019-01-24T14:30:39.904Z,54.37
2019-01-24T14:33:11.042Z,58.50
2019-01-24T14:35:43.764Z,58.00
2019-01-24T14:38:12.449Z,53.57
2019-01-24T14:40:41.558Z,50.93
2019-01-24T14:43:13.133Z,62.13
2019-01-24T14:45:41.690Z,49.93
2019-01-24T14:48:10.260Z,50.67
2019-01-24T14:50:38.834Z,62.00
2019-01-24T14:53:10.646Z,58.67
2019-01-24T14:55:39.216Z,53.17
2019-01-24T14:58:07.878Z,54.77
2019-01-24T15:00:39.389Z,59.40
2019-01-24T15:03:08.898Z,59.40
2019-01-24T15:05:37.519Z,56.43
2019-01-24T15:08:06.648Z,53.90
2019-01-24T15:10:35.723Z,52.80
2019-01-24T15:13:05.656Z,54.97
2019-01-24T15:15:34.783Z,58.10
2019-01-24T15:18:09.177Z,55.00
2019-01-24T15:20:37.816Z,54.13
2019-01-24T15:23:09.305Z,52.37
2019-01-24T15:25:37.951Z,59.57
2019-01-24T15:28:07.481Z,56.07
2019-01-24T15:30:42.306Z,52.47
2019-01-24T15:33:12.522Z,61.27
2019-01-24T15:35:42.485Z,49.87
2019-01-24T15:38:12.612Z,58.27
2019-01-24T15:40:41.243Z,60.37
2019-01-24T15:45:50.272Z,62.03
2019-01-24T15:48:18.862Z,57.03
2019-01-24T15:50:47.422Z,63.77
2019-01-24T15:53:16.147Z,54.17
2019-01-24T15:55:48.379Z,57.70
2019-01-24T15:58:17.064Z,64.13
2019-01-24T16:00:45.622Z,58.53
2019-01-24T16:03:17.242Z,57.33
2019-01-24T16:05:45.862Z,60.77
2019-01-24T16:08:17.954Z,59.27
2019-01-24T16:10:46.273Z,55.97
2019-01-24T16:13:17.692Z,63.77
2019-01-24T16:15:46.257Z,57.30
2019-01-24T16:18:16.421Z,59.90
2019-01-24T16:20:47.826Z,61.53
2019-01-24T16:23:16.325Z,54.70
2019-01-24T16:25:47.446Z,65.30
2019-01-24T16:28:15.728Z,61.73
2019-01-24T16:30:44.410Z,67.83
2019-01-24T16:33:15.706Z,62.60
2019-01-24T16:35:44.405Z,68.20
2019-01-24T16:38:13.076Z,68.13
2019-01-24T16:40:42.034Z,66.80
2019-01-24T16:43:10.588Z,75.97
2019-01-24T16:45:39.154Z,72.40
2019-01-24T16:48:07.911Z,71.43
2019-01-24T16:50:36.564Z,75.13
2019-01-24T16:53:05.382Z,69.17
2019-01-24T16:55:34.330Z,75.07
2019-01-24T16:58:09.282Z,75.10
2019-01-24T17:00:41.302Z,71.90
2019-01-24T17:03:09.940Z,73.77
2019-01-24T17:05:39.094Z,80.70
2019-01-24T17:08:08.147Z,75.53
2019-01-24T17:10:39.268Z,81.83
2019-01-24T17:13:07.992Z,78.40
2019-01-24T17:15:36.538Z,79.47
2019-01-24T17:18:05.436Z,79.33
2019-01-24T17:20:34.164Z,78.27
2019-01-24T17:23:02.786Z,88.33
2019-01-24T17:25:39.681Z,84.60
2019-01-24T17:28:11.392Z,90.10
2019-01-24T17:30:40.136Z,86.73
2019-01-24T17:33:08.771Z,87.33
2019-01-24T17:35:37.438Z,90.33
2019-01-24T17:38:06.138Z,97.57
2019-01-24T17:40:35.679Z,98.73
2019-01-24T17:43:07.316Z,90.53
2019-01-24T17:45:35.962Z,95.57
2019-01-24T17:48:08.409Z,87.40
2019-01-24T17:50:37.458Z,86.03
2019-01-24T17:53:06.123Z,101.77
2019-01-24T17:55:37.155Z,97.63
2019-01-24T17:58:07.729Z,96.57
2019-01-24T18:00:40.164Z,102.13
2019-01-24T18:03:11.182Z,92.17
2019-01-24T18:05:41.364Z,100.20
2019-01-24T18:08:12.795Z,97.37
2019-01-24T18:10:41.501Z,110.93
2019-01-24T18:13:10.096Z,98.03
2019-01-24T18:15:40.351Z,92.13
2019-01-24T18:18:11.735Z,103.50
2019-01-24T18:20:40.385Z,95.93
2019-01-24T18:23:10.180Z,91.40
2019-01-24T18:25:38.941Z,100.60
2019-01-24T18:28:09.676Z,103.93
2019-01-24T18:30:41.158Z,98.53
2019-01-24T18:33:10.025Z,93.70
2019-01-24T18:35:38.663Z,94.33
2019-01-24T18:38:07.425Z,94.13
2019-01-24T18:40:36.459Z,96.60
2019-01-24T18:43:07.650Z,101.13
2019-01-24T18:45:52.323Z,95.13
2019-01-24T18:48:21.027Z,96.50
2019-01-24T18:50:49.938Z,100.90
2019-01-24T18:53:18.522Z,99.47
2019-01-24T18:55:47.080Z,104.27
2019-01-24T18:58:15.778Z,91.53
2019-01-24T19:00:45.334Z,95.60
2019-01-24T19:03:14.142Z,102.27
2019-01-24T19:05:42.865Z,102.60
2019-01-24T19:08:11.521Z,106.27
2019-01-24T19:10:40.178Z,105.73
2019-01-24T19:13:08.971Z,102.10
2019-01-24T19:15:37.651Z,101.33
2019-01-24T19:18:07.155Z,96.80
2019-01-24T19:20:35.974Z,104.13
2019-01-24T19:23:04.817Z,109.30
2019-01-24T19:25:33.527Z,104.43
2019-01-24T19:28:02.201Z,103.77
2019-01-24T19:30:34.242Z,106.70
2019-01-24T19:33:04.455Z,102.97
2019-01-24T19:35:33.040Z,108.97
2019-01-24T19:38:01.698Z,101.33
2019-01-24T19:40:31.995Z,102.47
2019-01-24T19:43:00.602Z,98.63
2019-01-24T19:45:29.693Z,97.13
2019-01-24T19:47:58.320Z,103.73
2019-01-24T19:50:29.073Z,110.97
2019-01-24T19:52:58.808Z,104.40
2019-01-24T19:55:27.577Z,109.33
2019-01-24T19:57:56.719Z,107.80
2019-01-24T20:00:28.358Z,99.97
2019-01-24T20:02:57.414Z,97.80
2019-01-24T20:05:26.142Z,101.97
2019-01-24T20:07:57.693Z,116.50
2019-01-24T20:10:30.018Z,105.43
2019-01-24T20:13:01.379Z,115.97
2019-01-24T20:15:33.806Z,115.50
2019-01-24T20:18:09.281Z,106.67
2019-01-24T20:20:46.179Z,110.40
2019-01-24T20:23:15.070Z,114.83
2019-01-24T20:25:43.771Z,111.70
2019-01-24T20:28:12.427Z,105.23
2019-01-24T20:30:41.274Z,114.03
2019-01-24T20:33:09.847Z,117.50
2019-01-24T20:35:44.807Z,120.00
2019-01-24T20:38:13.452Z,107.70
2019-01-24T20:40:42.019Z,112.00
2019-01-24T20:43:12.074Z,117.90
2019-01-24T20:45:41.094Z,112.30
2019-01-24T20:48:09.840Z,111.67
2019-01-24T20:50:38.489Z,113.00
2019-01-24T20:53:09.389Z,109.07
2019-01-24T20:55:38.163Z,112.03
2019-01-24T20:58:06.902Z,102.83
2019-01-24T21:00:35.711Z,116.13
2019-01-24T21:03:04.508Z,114.43
2019-01-24T21:05:33.386Z,114.40
2019-01-24T21:08:01.958Z,114.00
2019-01-24T21:10:30.975Z,123.70
2019-01-24T21:12:59.538Z,119.27
2019-01-24T21:15:28.252Z,120.10
2019-01-24T21:17:56.869Z,112.60
2019-01-24T21:20:30.310Z,113.67
2019-01-24T21:23:01.794Z,114.90
2019-01-24T21:25:30.647Z,116.67
2019-01-24T21:27:59.317Z,111.53
2019-01-24T21:30:30.477Z,116.77
2019-01-24T21:32:59.196Z,110.40
2019-01-24T21:35:28.466Z,119.33
2019-01-24T21:37:57.928Z,111.97
2019-01-24T21:40:26.679Z,115.93
2019-01-24T21:42:55.297Z,113.30
2019-01-24T21:45:29.154Z,97.13
2019-01-24T21:47:57.877Z,115.20
2019-01-24T21:50:28.778Z,102.33
2019-01-24T21:52:57.700Z,104.37
2019-01-24T21:55:26.374Z,105.23
2019-01-24T21:57:55.131Z,101.77
2019-01-24T22:00:25.747Z,106.50
2019-01-24T22:02:54.446Z,107.20
2019-01-24T22:05:23.480Z,110.47
2019-01-24T22:07:52.945Z,105.63
2019-01-24T22:10:26.871Z,104.70
2019-01-24T22:12:55.541Z,97.30
2019-01-24T22:15:26.343Z,105.07
2019-01-24T22:17:55.189Z,109.23
2019-01-24T22:20:37.565Z,109.93
2019-01-24T22:23:06.427Z,105.27
2019-01-24T22:25:35.463Z,118.60
2019-01-24T22:28:05.018Z,116.87
2019-01-24T22:30:40.851Z,105.90
2019-01-24T22:33:12.578Z,109.27
2019-01-24T22:35:41.437Z,107.00
2019-01-24T22:38:10.114Z,109.60
2019-01-24T22:40:38.667Z,112.47
2019-01-24T22:43:07.635Z,109.57
2019-01-24T22:45:36.311Z,101.30
2019-01-24T22:48:06.122Z,110.80
2019-01-24T22:50:34.713Z,110.87
2019-01-24T22:53:07.811Z,97.43
2019-01-24T22:55:36.073Z,101.27
2019-01-24T22:58:08.820Z,99.43
2019-01-24T23:00:54.337Z,101.93
2019-01-24T23:03:28.922Z,103.50
2019-01-24T23:05:57.583Z,106.10
2019-01-24T23:08:26.133Z,110.27
2019-01-24T23:10:54.876Z,111.70
2019-01-24T23:13:25.968Z,100.03
2019-01-24T23:15:54.588Z,98.53
2019-01-24T23:18:24.823Z,102.10
2019-01-24T23:20:53.408Z,95.87
2019-01-24T23:23:23.776Z,96.53
2019-01-24T23:25:52.362Z,105.60
2019-01-24T23:28:21.377Z,97.63
2019-01-24T23:30:49.989Z,96.33
2019-01-24T23:33:18.689Z,101.60
2019-01-24T23:35:47.785Z,101.33
2019-01-24T23:38:16.399Z,98.37
2019-01-24T23:40:44.954Z,94.90
2019-01-24T23:43:13.627Z,88.50
2019-01-24T23:45:42.235Z,94.13
2019-01-24T23:48:10.856Z,102.13
2019-01-24T23:50:39.500Z,95.60
2019-01-24T23:53:08.138Z,89.03
2019-01-24T23:55:36.713Z,94.23
2019-01-24T23:58:05.429Z,94.50
